Time,TemperatureF,DewpointF,PressureIn,WindDirection,WindDirectionDegrees,WindSpeedMPH,WindSpeedGustMPH,Humidity,HourlyPrecipIn,Conditions,Clouds,dailyrainin,SolarRadiationWatts/m^2,SoftwareType,DateUTC
2013-02-05 00:07:00,47.2,47.2,30.12,East,88,0.0,1.0,100,0.00,,,0.00,0,Wunderground v.1.15,2013-02-05 08:07:00,
2013-02-05 00:12:00,47.0,47.0,30.12,ENE,70,0.0,0.0,100,0.00,,,0.00,0,Wunderground v.1.15,2013-02-05 08:12:00,
2013-02-05 00:18:00,46.9,46.9,30.12,ENE,70,0.0,0.0,100,0.00,,,0.00,0,Wunderground v.1.15,2013-02-05 08:18:00,
2013-02-05 00:23:00,46.9,46.9,30.12,ENE,70,0.0,0.0,100,0.00,,,0.00,0,Wunderground v.1.15,2013-02-05 08:23:00,
2013-02-05 00:29:00,46.8,46.8,30.11,ESE,104,0.0,0.0,100,0.00,,,0.00,0,Wunderground v.1.15,2013-02-05 08:29:00,
2013-02-05 00:34:00,46.8,46.8,30.11,ESE,120,2.0,2.0,100,0.00,,,0.00,0,Wunderground v.1.15,2013-02-05 08:34:00,
2013-02-05 00:40:00,47.0,47.0,30.12,ESE,121,0.0,0.0,100,0.00,,,0.00,0,Wunderground v.1.15,2013-02-05 08:40:00,
2013-02-05 00:46:00,47.0,47.0,30.12,ESE,123,0.0,0.0,100,0.00,,,0.00,0,Wunderground v.1.15,2013-02-05 08:46:00,
2013-02-05 00:52:00,47.0,47.0,30.12,ESE,122,0.0,0.0,100,0.00,,,0.00,0,Wunderground v.1.15,2013-02-05 08:52:00,
2013-02-05 00:58:00,46.4,46.4,30.12,ESE,121,0.0,0.0,100,0.00,,,0.00,0,Wunderground v.1.15,2013-02-05 08:58:00,
2013-02-05 01:03:00,46.2,46.2,30.12,ESE,121,0.0,1.0,100,0.00,,,0.00,0,Wunderground v.1.15,2013-02-05 09:03:00,
2013-02-05 01:09:00,46.1,46.1,30.12,ESE,121,0.0,0.0,100,0.00,,,0.00,0,Wunderground v.1.15,2013-02-05 09:09:00,
2013-02-05 01:14:00,46.1,46.1,30.12,ESE,121,0.0,0.0,100,0.00,,,0.00,0,Wunderground v.1.15,2013-02-05 09:14:00,
2013-02-05 01:20:00,46.3,46.3,30.12,ESE,121,0.0,1.0,100,0.00,,,0.00,0,Wunderground v.1.15,2013-02-05 09:20:00,
2013-02-05 01:26:00,46.5,46.5,30.12,ESE,122,0.0,1.0,100,0.00,,,0.00,0,Wunderground v.1.15,2013-02-05 09:26:00,
2013-02-05 01:32:00,46.4,46.4,30.12,ESE,122,0.0,0.0,100,0.00,,,0.00,0,Wunderground v.1.15,2013-02-05 09:32:00,
2013-02-05 01:38:00,46.2,46.2,30.12,ESE,116,0.0,1.0,100,0.00,,,0.00,0,Wunderground v.1.15,2013-02-05 09:38:00,
2013-02-05 01:43:00,46.0,46.0,30.12,ESE,116,0.0,0.0,100,0.00,,,0.00,0,Wunderground v.1.15,2013-02-05 09:43:00,
2013-02-05 01:49:00,46.0,46.0,30.12,ESE,113,2.0,2.0,100,0.00,,,0.00,0,Wunderground v.1.15,2013-02-05 09:49:00,
2013-02-05 01:54:00,46.1,46.1,30.12,ESE,119,0.0,2.0,100,0.00,,,0.00,0,Wunderground v.1.15,2013-02-05 09:54:00,
2013-02-05 02:00:00,46.3,46.3,30.12,ESE,123,1.0,3.0,100,0.00,,,0.00,0,Wunderground v.1.15,2013-02-05 10:00:00,
2013-02-05 02:07:00,46.3,46.3,30.12,SE,129,0.0,3.0,100,0.00,,,0.00,0,Wunderground v.1.15,2013-02-05 10:07:00,
2013-02-05 02:12:00,46.3,46.3,30.12,ESE,120,0.0,3.0,100,0.00,,,0.00,0,Wunderground v.1.15,2013-02-05 10:12:00,
2013-02-05 02:18:00,46.0,46.0,30.12,ESE,116,1.0,3.0,100,0.00,,,0.00,0,Wunderground v.1.15,2013-02-05 10:18:00,
2013-02-05 02:24:00,45.8,45.8,30.12,ESE,114,0.0,0.0,100,0.00,,,0.00,0,Wunderground v.1.15,2013-02-05 10:24:00,
2013-02-05 02:29:00,45.5,45.5,30.12,ESE,114,0.0,0.0,100,0.00,,,0.00,0,Wunderground v.1.15,2013-02-05 10:29:00,
2013-02-05 02:35:00,45.5,45.5,30.12,ESE,114,0.0,0.0,100,0.00,,,0.00,0,Wunderground v.1.15,2013-02-05 10:35:00,
2013-02-05 02:41:00,45.6,45.6,30.12,ESE,118,0.0,0.0,100,0.00,,,0.00,0,Wunderground v.1.15,2013-02-05 10:41:00,
2013-02-05 02:46:00,45.7,45.7,30.12,ESE,118,0.0,1.0,100,0.00,,,0.00,0,Wunderground v.1.15,2013-02-05 10:46:00,
2013-02-05 02:52:00,45.7,45.7,30.12,ESE,118,0.0,0.0,100,0.00,,,0.00,0,Wunderground v.1.15,2013-02-05 10:52:00,
2013-02-05 02:57:00,45.7,45.7,30.11,ESE,118,0.0,0.0,100,0.00,,,0.00,0,Wunderground v.1.15,2013-02-05 10:57:00,
2013-02-05 03:03:00,45.6,45.6,30.11,ESE,118,1.0,3.0,100,0.00,,,0.00,0,Wunderground v.1.15,2013-02-05 11:03:00,
2013-02-05 03:09:00,45.6,45.6,30.11,ESE,118,0.0,0.0,100,0.00,,,0.00,0,Wunderground v.1.15,2013-02-05 11:09:00,
2013-02-05 03:14:00,45.6,45.6,30.11,ESE,118,0.0,0.0,100,0.00,,,0.00,0,Wunderground v.1.15,2013-02-05 11:14:00,
2013-02-05 03:20:00,45.4,45.4,30.11,ESE,118,0.0,0.0,100,0.00,,,0.00,0,Wunderground v.1.15,2013-02-05 11:20:00,
2013-02-05 03:25:00,45.3,45.3,30.11,ESE,120,0.0,0.0,100,0.00,,,0.00,0,Wunderground v.1.15,2013-02-05 11:25:00,
2013-02-05 03:31:00,45.3,45.3,30.12,ESE,120,0.0,1.0,100,0.00,,,0.00,0,Wunderground v.1.15,2013-02-05 11:31:00,
2013-02-05 03:37:00,45.3,45.0,30.11,SE,133,0.0,3.0,99,0.00,,,0.00,0,Wunderground v.1.15,2013-02-05 11:37:00,
2013-02-05 03:43:00,45.3,45.0,30.11,SE,132,0.0,1.0,99,0.00,,,0.00,0,Wunderground v.1.15,2013-02-05 11:43:00,
2013-02-05 03:49:00,45.2,44.9,30.11,SE,124,0.0,0.0,99,0.00,,,0.00,0,Wunderground v.1.15,2013-02-05 11:49:00,
2013-02-05 03:55:00,45.2,44.9,30.11,SE,135,1.0,2.0,99,0.00,,,0.00,0,Wunderground v.1.15,2013-02-05 11:55:00,
2013-02-05 04:00:00,45.1,44.8,30.11,SE,135,1.0,1.0,99,0.00,,,0.00,0,Wunderground v.1.15,2013-02-05 12:00:00,
2013-02-05 04:07:00,45.2,44.7,30.11,SE,137,4.0,4.0,98,0.00,,,0.00,0,Wunderground v.1.15,2013-02-05 12:07:00,
2013-02-05 04:13:00,45.4,44.6,30.10,ESE,122,5.0,6.0,97,0.00,,,0.00,0,Wunderground v.1.15,2013-02-05 12:13:00,
2013-02-05 04:18:00,45.6,44.5,30.10,SE,136,3.0,8.0,96,0.00,,,0.00,0,Wunderground v.1.15,2013-02-05 12:18:00,
2013-02-05 04:24:00,45.6,44.5,30.09,SE,138,3.0,8.0,96,0.00,,,0.00,0,Wunderground v.1.15,2013-02-05 12:24:00,
2013-02-05 04:30:00,45.5,44.4,30.10,SE,130,8.0,8.0,96,0.00,,,0.00,0,Wunderground v.1.15,2013-02-05 12:30:00,
2013-02-05 04:36:00,45.5,44.4,30.09,SE,139,4.0,8.0,96,0.00,,,0.00,0,Wunderground v.1.15,2013-02-05 12:36:00,
2013-02-05 04:41:00,45.5,44.2,30.10,SE,131,3.0,6.0,95,0.00,,,0.00,0,Wunderground v.1.15,2013-02-05 12:41:00,
2013-02-05 04:47:00,45.4,44.3,30.10,SSE,155,0.0,6.0,96,0.00,,,0.00,0,Wunderground v.1.15,2013-02-05 12:47:00,
2013-02-05 04:53:00,45.4,44.3,30.10,SSE,155,0.0,0.0,96,0.00,,,0.00,0,Wunderground v.1.15,2013-02-05 12:53:00,
2013-02-05 04:59:00,45.2,44.1,30.10,SE,129,0.0,0.0,96,0.00,,,0.00,0,Wunderground v.1.15,2013-02-05 12:59:00,
2013-02-05 05:07:00,45.0,43.9,30.10,SE,131,1.0,3.0,96,0.00,,,0.00,0,Wunderground v.1.15,2013-02-05 13:07:00,
2013-02-05 05:12:00,44.7,43.6,30.10,SE,136,0.0,1.0,96,0.00,,,0.00,0,Wunderground v.1.15,2013-02-05 13:12:00,
2013-02-05 05:18:00,44.7,43.9,30.10,SE,136,0.0,1.0,97,0.00,,,0.00,0,Wunderground v.1.15,2013-02-05 13:18:00,
2013-02-05 05:23:00,44.8,44.0,30.11,SE,136,0.0,0.0,97,0.00,,,0.00,0,Wunderground v.1.15,2013-02-05 13:23:00,
2013-02-05 05:29:00,44.7,43.9,30.11,SE,136,0.0,0.0,97,0.00,,,0.00,0,Wunderground v.1.15,2013-02-05 13:29:00,
2013-02-05 05:35:00,44.7,44.2,30.11,SSW,201,0.0,0.0,98,0.00,,,0.00,0,Wunderground v.1.15,2013-02-05 13:35:00,
2013-02-05 05:41:00,44.3,43.2,30.11,SSW,201,1.0,1.0,96,0.00,,,0.00,0,Wunderground v.1.15,2013-02-05 13:41:00,
2013-02-05 05:47:00,43.4,42.6,30.11,SSW,201,0.0,1.0,97,0.00,,,0.00,0,Wunderground v.1.15,2013-02-05 13:47:00,
2013-02-05 05:52:00,43.0,42.5,30.11,SSW,201,0.0,0.0,98,0.00,,,0.00,0,Wunderground v.1.15,2013-02-05 13:52:00,
2013-02-05 05:58:00,42.8,42.5,30.11,SSW,201,0.0,0.0,99,0.00,,,0.00,0,Wunderground v.1.15,2013-02-05 13:58:00,
2013-02-05 06:07:00,42.8,42.8,30.12,ESE,114,0.0,8.0,100,0.00,,,0.00,0,Wunderground v.1.15,2013-02-05 14:07:00,
2013-02-05 06:12:00,42.8,42.8,30.12,SE,144,2.0,2.0,100,0.00,,,0.00,0,Wunderground v.1.15,2013-02-05 14:12:00,
2013-02-05 06:18:00,42.6,42.6,30.12,SE,132,1.0,2.0,100,0.00,,,0.00,0,Wunderground v.1.15,2013-02-05 14:18:00,
2013-02-05 06:24:00,42.6,42.6,30.12,SE,124,2.0,2.0,100,0.00,,,0.00,0,Wunderground v.1.15,2013-02-05 14:24:00,
2013-02-05 06:30:00,42.6,42.6,30.12,SE,126,1.0,2.0,100,0.00,,,0.00,0,Wunderground v.1.15,2013-02-05 14:30:00,
2013-02-05 06:35:00,42.7,42.7,30.12,ESE,108,4.0,4.0,100,0.00,,,0.00,0,Wunderground v.1.15,2013-02-05 14:35:00,
2013-02-05 06:41:00,42.7,42.7,30.12,ESE,117,3.0,3.0,100,0.00,,,0.00,0,Wunderground v.1.15,2013-02-05 14:41:00,
2013-02-05 06:46:00,42.7,42.7,30.12,ESE,112,3.0,6.0,100,0.00,,,0.00,0,Wunderground v.1.15,2013-02-05 14:46:00,
2013-02-05 06:52:00,42.7,42.7,30.12,ESE,108,4.0,4.0,100,0.00,,,0.00,0,Wunderground v.1.15,2013-02-05 14:52:00,
2013-02-05 06:58:00,42.7,42.7,30.12,ESE,103,6.0,6.0,100,0.00,,,0.00,0,Wunderground v.1.15,2013-02-05 14:58:00,
2013-02-05 07:07:00,42.7,42.7,30.13,ESE,122,2.0,5.0,100,0.00,,,0.00,0,Wunderground v.1.15,2013-02-05 15:07:00,
2013-02-05 07:12:00,42.7,42.7,30.13,ESE,118,0.0,0.0,100,0.00,,,0.00,0,Wunderground v.1.15,2013-02-05 15:12:00,
2013-02-05 07:17:00,42.7,42.7,30.13,SE,124,0.0,3.0,100,0.00,,,0.00,0,Wunderground v.1.15,2013-02-05 15:17:00,
2013-02-05 07:23:00,42.7,42.7,30.14,SE,125,1.0,1.0,100,0.00,,,0.00,0,Wunderground v.1.15,2013-02-05 15:23:00,
2013-02-05 07:29:00,42.7,42.7,30.13,SE,145,1.0,1.0,100,0.00,,,0.00,0,Wunderground v.1.15,2013-02-05 15:29:00,
2013-02-05 07:34:00,42.7,42.7,30.14,ESE,123,0.0,2.0,100,0.00,,,0.00,0,Wunderground v.1.15,2013-02-05 15:34:00,
2013-02-05 07:40:00,42.8,42.8,30.14,ESE,110,3.0,3.0,100,0.00,,,0.00,0,Wunderground v.1.15,2013-02-05 15:40:00,
2013-02-05 07:46:00,42.9,42.9,30.14,SE,130,2.0,5.0,100,0.00,,,0.00,0,Wunderground v.1.15,2013-02-05 15:46:00,
2013-02-05 07:52:00,43.1,43.1,30.14,SE,132,4.0,4.0,100,0.00,,,0.00,0,Wunderground v.1.15,2013-02-05 15:52:00,
2013-02-05 07:58:00,43.4,43.4,30.15,ESE,120,0.0,4.0,100,0.00,,,0.00,0,Wunderground v.1.15,2013-02-05 15:58:00,
2013-02-05 08:07:00,43.9,43.9,30.15,ESE,113,4.0,8.0,100,0.00,,,0.00,0,Wunderground v.1.15,2013-02-05 16:07:00,
2013-02-05 08:12:00,44.3,44.3,30.15,SE,130,3.0,6.0,100,0.00,,,0.00,0,Wunderground v.1.15,2013-02-05 16:12:00,
2013-02-05 08:17:00,44.8,44.8,30.14,ESE,122,3.0,6.0,100,0.00,,,0.00,0,Wunderground v.1.15,2013-02-05 16:17:00,
2013-02-05 08:23:00,45.4,45.4,30.14,SE,127,5.0,6.0,100,0.00,,,0.00,0,Wunderground v.1.15,2013-02-05 16:23:00,
2013-02-05 08:28:00,45.7,45.7,30.14,ESE,120,1.0,6.0,100,0.00,,,0.00,0,Wunderground v.1.15,2013-02-05 16:28:00,
2013-02-05 08:34:00,46.2,46.2,30.14,SE,125,1.0,2.0,100,0.00,,,0.00,0,Wunderground v.1.15,2013-02-05 16:34:00,
2013-02-05 08:39:00,46.5,46.5,30.15,South,175,1.0,1.0,100,0.00,,,0.00,0,Wunderground v.1.15,2013-02-05 16:39:00,
2013-02-05 08:44:00,46.9,46.9,30.14,SSE,152,0.0,4.0,100,0.00,,,0.00,0,Wunderground v.1.15,2013-02-05 16:44:00,
2013-02-05 08:50:00,47.3,47.3,30.15,SSE,149,5.0,5.0,100,0.00,,,0.00,0,Wunderground v.1.15,2013-02-05 16:50:00,
2013-02-05 08:56:00,47.5,47.5,30.14,SE,138,4.0,5.0,100,0.00,,,0.00,0,Wunderground v.1.15,2013-02-05 16:56:00,
2013-02-05 09:01:00,47.7,47.4,30.14,SSE,156,4.0,6.0,99,0.00,,,0.00,0,Wunderground v.1.15,2013-02-05 17:01:00,
2013-02-05 09:07:00,48.2,47.9,30.14,SSE,147,4.0,7.0,99,0.00,,,0.00,0,Wunderground v.1.15,2013-02-05 17:07:00,
2013-02-05 09:12:00,48.4,48.1,30.14,SSE,161,3.0,4.0,99,0.00,,,0.00,0,Wunderground v.1.15,2013-02-05 17:12:00,
2013-02-05 09:18:00,48.8,48.0,30.14,SE,145,2.0,5.0,97,0.00,,,0.00,0,Wunderground v.1.15,2013-02-05 17:18:00,
2013-02-05 09:23:00,49.0,48.2,30.15,SSE,149,2.0,5.0,97,0.00,,,0.00,0,Wunderground v.1.15,2013-02-05 17:23:00,
2013-02-05 09:29:00,49.8,49.5,30.15,SSE,157,2.0,2.0,99,0.00,,,0.00,0,Wunderground v.1.15,2013-02-05 17:29:00,
2013-02-05 09:34:00,50.1,49.3,30.16,SW,219,1.0,4.0,97,0.00,,,0.00,0,Wunderground v.1.15,2013-02-05 17:34:00,
2013-02-05 09:40:00,50.7,49.9,30.16,SW,221,0.0,1.0,97,0.00,,,0.00,0,Wunderground v.1.15,2013-02-05 17:40:00,
2013-02-05 09:45:00,51.2,50.1,30.16,SSW,201,3.0,4.0,96,0.00,,,0.00,0,Wunderground v.1.15,2013-02-05 17:45:00,
2013-02-05 09:51:00,51.1,50.0,30.15,SSE,153,2.0,3.0,96,0.00,,,0.00,0,Wunderground v.1.15,2013-02-05 17:51:00,
2013-02-05 09:57:00,51.1,50.0,30.15,SSE,147,1.0,4.0,96,0.00,,,0.00,0,Wunderground v.1.15,2013-02-05 17:57:00,
2013-02-05 10:03:00,51.0,49.6,30.15,SSE,161,1.0,8.0,95,0.00,,,0.00,0,Wunderground v.1.15,2013-02-05 18:03:00,
2013-02-05 10:08:00,51.2,50.1,30.15,WSW,242,1.0,8.0,96,0.00,,,0.00,0,Wunderground v.1.15,2013-02-05 18:08:00,
2013-02-05 10:14:00,51.2,49.8,30.15,South,171,2.0,5.0,95,0.00,,,0.00,0,Wunderground v.1.15,2013-02-05 18:14:00,
2013-02-05 10:19:00,51.1,49.4,30.15,SSE,152,2.0,2.0,94,0.00,,,0.00,0,Wunderground v.1.15,2013-02-05 18:19:00,
2013-02-05 10:24:00,51.2,49.8,30.15,ESE,114,3.0,3.0,95,0.00,,,0.00,0,Wunderground v.1.15,2013-02-05 18:24:00,
2013-02-05 10:30:00,51.3,49.6,30.15,SSE,160,3.0,3.0,94,0.00,,,0.00,0,Wunderground v.1.15,2013-02-05 18:30:00,
2013-02-05 10:36:00,51.4,49.7,30.15,ESE,120,0.0,4.0,94,0.00,,,0.00,0,Wunderground v.1.15,2013-02-05 18:36:00,
2013-02-05 10:42:00,51.5,50.1,30.15,SSE,150,3.0,5.0,95,0.00,,,0.00,0,Wunderground v.1.15,2013-02-05 18:42:00,
2013-02-05 10:48:00,51.6,50.2,30.14,SSE,154,2.0,5.0,95,0.00,,,0.00,0,Wunderground v.1.15,2013-02-05 18:48:00,
2013-02-05 10:53:00,51.7,50.0,30.14,SE,127,3.0,3.0,94,0.00,,,0.00,0,Wunderground v.1.15,2013-02-05 18:53:00,
2013-02-05 10:59:00,51.8,50.1,30.14,SE,142,2.0,2.0,94,0.00,,,0.00,0,Wunderground v.1.15,2013-02-05 18:59:00,
2013-02-05 11:07:00,52.0,49.7,30.14,SSE,147,2.0,6.0,92,0.00,,,0.00,0,Wunderground v.1.15,2013-02-05 19:07:00,
2013-02-05 11:12:00,52.3,50.9,30.14,SSW,202,0.0,1.0,95,0.00,,,0.00,0,Wunderground v.1.15,2013-02-05 19:12:00,
2013-02-05 11:18:00,52.7,50.7,30.14,SW,215,1.0,5.0,93,0.00,,,0.00,0,Wunderground v.1.15,2013-02-05 19:18:00,
2013-02-05 11:24:00,52.9,50.9,30.14,SSE,153,3.0,5.0,93,0.00,,,0.00,0,Wunderground v.1.15,2013-02-05 19:24:00,
2013-02-05 11:29:00,53.3,51.6,30.14,South,179,1.0,1.0,94,0.00,,,0.00,0,Wunderground v.1.15,2013-02-05 19:29:00,
2013-02-05 11:34:00,53.6,51.9,30.13,SW,215,1.0,1.0,94,0.00,,,0.00,0,Wunderground v.1.15,2013-02-05 19:34:00,
2013-02-05 11:40:00,53.7,51.1,30.13,SSE,154,4.0,4.0,91,0.00,,,0.00,0,Wunderground v.1.15,2013-02-05 19:40:00,
2013-02-05 11:46:00,53.3,50.7,30.12,SSE,152,1.0,4.0,91,0.00,,,0.00,0,Wunderground v.1.15,2013-02-05 19:46:00,
2013-02-05 11:51:00,53.2,50.9,30.13,SE,143,0.0,3.0,92,0.00,,,0.00,0,Wunderground v.1.15,2013-02-05 19:51:00,
2013-02-05 11:57:00,53.3,51.3,30.12,South,176,1.0,3.0,93,0.00,,,0.00,0,Wunderground v.1.15,2013-02-05 19:57:00,
2013-02-05 12:02:00,53.3,51.0,30.12,South,171,1.0,7.0,92,0.00,,,0.00,0,Wunderground v.1.15,2013-02-05 20:02:00,
2013-02-05 12:08:00,53.2,50.9,30.11,SSW,196,1.0,7.0,92,0.00,,,0.00,0,Wunderground v.1.15,2013-02-05 20:08:00,
2013-02-05 12:14:00,53.3,51.0,30.12,SSE,161,0.0,3.0,92,0.00,,,0.00,0,Wunderground v.1.15,2013-02-05 20:14:00,
2013-02-05 12:20:00,53.4,51.4,30.12,SSE,160,2.0,2.0,93,0.00,,,0.00,0,Wunderground v.1.15,2013-02-05 20:20:00,
2013-02-05 12:25:00,53.5,51.5,30.11,South,173,0.0,2.0,93,0.00,,,0.00,0,Wunderground v.1.15,2013-02-05 20:25:00,
2013-02-05 12:30:00,53.6,51.3,30.11,South,190,0.0,3.0,92,0.00,,,0.00,0,Wunderground v.1.15,2013-02-05 20:30:00,
2013-02-05 12:35:00,53.7,51.7,30.11,SSW,202,1.0,3.0,93,0.00,,,0.00,0,Wunderground v.1.15,2013-02-05 20:35:00,
2013-02-05 12:41:00,53.8,51.5,30.11,South,176,1.0,1.0,92,0.00,,,0.00,0,Wunderground v.1.15,2013-02-05 20:41:00,
2013-02-05 12:46:00,54.0,52.0,30.10,SSE,164,1.0,2.0,93,0.00,,,0.00,0,Wunderground v.1.15,2013-02-05 20:46:00,
2013-02-05 12:51:00,54.1,51.5,30.10,SSE,156,5.0,5.0,91,0.00,,,0.00,0,Wunderground v.1.15,2013-02-05 20:51:00,
2013-02-05 12:57:00,54.2,51.9,30.10,South,170,1.0,5.0,92,0.00,,,0.00,0,Wunderground v.1.15,2013-02-05 20:57:00,
2013-02-05 13:03:00,54.6,52.0,30.10,SE,140,2.0,7.0,91,0.00,,,0.00,0,Wunderground v.1.15,2013-02-05 21:03:00,
2013-02-05 13:08:00,54.4,51.5,30.09,SE,127,5.0,7.0,90,0.00,,,0.00,0,Wunderground v.1.15,2013-02-05 21:08:00,
2013-02-05 13:13:00,54.3,51.7,30.10,SSE,167,3.0,6.0,91,0.00,,,0.00,0,Wunderground v.1.15,2013-02-05 21:13:00,
2013-02-05 13:19:00,54.6,51.7,30.09,SSE,156,3.0,3.0,90,0.00,,,0.00,0,Wunderground v.1.15,2013-02-05 21:19:00,
2013-02-05 13:24:00,55.0,52.1,30.09,SSE,156,1.0,5.0,90,0.00,,,0.00,0,Wunderground v.1.15,2013-02-05 21:24:00,
2013-02-05 13:30:00,55.3,52.4,30.09,SW,218,2.0,2.0,90,0.00,,,0.00,0,Wunderground v.1.15,2013-02-05 21:30:00,
2013-02-05 13:35:00,55.5,52.3,30.09,SSW,211,3.0,4.0,89,0.00,,,0.00,0,Wunderground v.1.15,2013-02-05 21:35:00,
2013-02-05 13:41:00,55.7,52.5,30.09,South,171,0.0,1.0,89,0.00,,,0.00,0,Wunderground v.1.15,2013-02-05 21:41:00,
2013-02-05 13:47:00,56.0,52.2,30.09,SSE,154,4.0,7.0,87,0.00,,,0.00,0,Wunderground v.1.15,2013-02-05 21:47:00,
2013-02-05 13:52:00,55.8,52.0,30.09,SW,219,1.0,5.0,87,0.00,,,0.00,0,Wunderground v.1.15,2013-02-05 21:52:00,
2013-02-05 13:57:00,55.5,52.0,30.09,South,179,1.0,5.0,88,0.00,,,0.00,0,Wunderground v.1.15,2013-02-05 21:57:00,
2013-02-05 14:03:00,55.6,52.4,30.09,SE,141,1.0,6.0,89,0.00,,,0.00,0,Wunderground v.1.15,2013-02-05 22:03:00,
2013-02-05 14:08:00,55.8,52.3,30.09,SSE,150,4.0,6.0,88,0.00,,,0.00,0,Wunderground v.1.15,2013-02-05 22:08:00,
2013-02-05 14:14:00,55.9,52.1,30.09,South,180,3.0,5.0,87,0.00,,,0.00,0,Wunderground v.1.15,2013-02-05 22:14:00,
2013-02-05 14:20:00,55.9,52.4,30.09,SSE,164,2.0,2.0,88,0.00,,,0.00,0,Wunderground v.1.15,2013-02-05 22:20:00,
2013-02-05 14:25:00,55.7,51.9,30.09,SSW,203,3.0,3.0,87,0.00,,,0.00,0,Wunderground v.1.15,2013-02-05 22:25:00,
2013-02-05 14:31:00,55.5,52.0,30.09,South,172,2.0,4.0,88,0.00,,,0.00,0,Wunderground v.1.15,2013-02-05 22:31:00,
2013-02-05 17:07:00,52.8,49.0,30.10,ESE,114,3.0,6.0,87,0.00,,,0.00,0,Wunderground v.1.15,2013-02-06 01:07:00,
2013-02-05 17:12:00,52.6,49.1,30.10,ESE,116,2.0,3.0,88,0.00,,,0.00,0,Wunderground v.1.15,2013-02-06 01:12:00,
2013-02-05 17:18:00,52.3,48.9,30.10,ESE,118,4.0,4.0,88,0.00,,,0.00,0,Wunderground v.1.15,2013-02-06 01:18:00,
2013-02-05 17:24:00,52.1,49.0,30.10,ESE,121,0.0,2.0,89,0.00,,,0.00,0,Wunderground v.1.15,2013-02-06 01:24:00,
2013-02-05 17:29:00,51.8,48.7,30.10,SE,130,1.0,1.0,89,0.00,,,0.00,0,Wunderground v.1.15,2013-02-06 01:29:00,
2013-02-05 17:34:00,51.6,48.8,30.10,ESE,115,1.0,1.0,90,0.00,,,0.00,0,Wunderground v.1.15,2013-02-06 01:34:00,
2013-02-05 17:39:00,51.4,48.6,30.10,ESE,107,0.0,0.0,90,0.00,,,0.00,0,Wunderground v.1.15,2013-02-06 01:39:00,
2013-02-05 17:45:00,51.1,48.6,30.10,SE,125,2.0,3.0,91,0.00,,,0.00,0,Wunderground v.1.15,2013-02-06 01:45:00,
2013-02-05 17:51:00,50.9,48.7,30.10,ESE,105,1.0,2.0,92,0.00,,,0.00,0,Wunderground v.1.15,2013-02-06 01:51:00,
2013-02-05 17:56:00,50.8,48.6,30.10,ESE,122,2.0,3.0,92,0.00,,,0.00,0,Wunderground v.1.15,2013-02-06 01:56:00,
2013-02-05 18:02:00,50.5,48.3,30.10,ESE,120,0.0,9.0,92,0.00,,,0.00,0,Wunderground v.1.15,2013-02-06 02:02:00,
2013-02-05 18:07:00,50.4,48.2,30.10,East,100,1.0,9.0,92,0.00,,,0.00,0,Wunderground v.1.15,2013-02-06 02:07:00,
2013-02-05 18:13:00,50.1,47.9,30.10,ESE,102,3.0,3.0,92,0.00,,,0.00,0,Wunderground v.1.15,2013-02-06 02:13:00,
2013-02-05 18:19:00,50.0,48.1,30.10,SE,127,2.0,2.0,93,0.00,,,0.00,0,Wunderground v.1.15,2013-02-06 02:19:00,
2013-02-05 18:24:00,49.9,48.0,30.10,ESE,106,0.0,2.0,93,0.00,,,0.00,0,Wunderground v.1.15,2013-02-06 02:24:00,
2013-02-05 18:30:00,49.6,47.7,30.10,ESE,106,0.0,0.0,93,0.00,,,0.00,0,Wunderground v.1.15,2013-02-06 02:30:00,
2013-02-05 18:35:00,49.3,47.4,30.11,ESE,103,0.0,0.0,93,0.00,,,0.00,0,Wunderground v.1.15,2013-02-06 02:35:00,
2013-02-05 18:40:00,49.2,47.3,30.11,ENE,77,0.0,0.0,93,0.00,,,0.00,0,Wunderground v.1.15,2013-02-06 02:40:00,
2013-02-05 18:45:00,49.0,47.3,30.11,East,87,1.0,2.0,94,0.00,,,0.00,0,Wunderground v.1.15,2013-02-06 02:45:00,
2013-02-05 18:50:00,49.0,47.3,30.11,ESE,114,2.0,2.0,94,0.00,,,0.00,0,Wunderground v.1.15,2013-02-06 02:50:00,
2013-02-05 18:56:00,48.9,47.5,30.11,ESE,119,1.0,4.0,95,0.00,,,0.00,0,Wunderground v.1.15,2013-02-06 02:56:00,
2013-02-05 19:02:00,48.8,47.4,30.11,SE,137,1.0,6.0,95,0.00,,,0.00,0,Wunderground v.1.15,2013-02-06 03:02:00,
2013-02-05 19:07:00,48.8,47.2,30.11,ESE,107,2.0,6.0,94,0.00,,,0.00,0,Wunderground v.1.15,2013-02-06 03:07:00,
2013-02-05 19:13:00,48.7,47.3,30.11,ESE,113,2.0,4.0,95,0.00,,,0.00,0,Wunderground v.1.15,2013-02-06 03:13:00,
2013-02-05 19:18:00,48.7,47.3,30.11,ESE,117,1.0,4.0,95,0.00,,,0.00,0,Wunderground v.1.15,2013-02-06 03:18:00,
2013-02-05 19:23:00,48.6,47.2,30.11,ESE,108,4.0,4.0,95,0.00,,,0.00,0,Wunderground v.1.15,2013-02-06 03:23:00,
2013-02-05 19:29:00,48.5,47.1,30.11,ESE,112,4.0,4.0,95,0.00,,,0.00,0,Wunderground v.1.15,2013-02-06 03:29:00,
2013-02-05 19:34:00,48.4,47.0,30.11,ESE,118,1.0,4.0,95,0.00,,,0.00,0,Wunderground v.1.15,2013-02-06 03:34:00,
2013-02-05 19:40:00,48.3,47.2,30.11,East,101,2.0,2.0,96,0.00,,,0.00,0,Wunderground v.1.15,2013-02-06 03:40:00,
2013-02-05 19:45:00,48.3,47.2,30.11,ESE,112,4.0,5.0,96,0.00,,,0.00,0,Wunderground v.1.15,2013-02-06 03:45:00,
2013-02-05 19:50:00,48.3,47.2,30.11,ESE,123,4.0,4.0,96,0.00,,,0.00,0,Wunderground v.1.15,2013-02-06 03:50:00,
2013-02-05 19:55:00,48.4,47.3,30.11,ESE,108,6.0,6.0,96,0.00,,,0.00,0,Wunderground v.1.15,2013-02-06 03:55:00,
2013-02-05 20:01:00,48.3,47.2,30.11,ESE,109,3.0,6.0,96,0.00,,,0.00,0,Wunderground v.1.15,2013-02-06 04:01:00,
2013-02-05 20:07:00,48.3,47.2,30.11,ESE,106,5.0,6.0,96,0.00,,,0.00,0,Wunderground v.1.15,2013-02-06 04:07:00,
2013-02-05 20:13:00,48.3,47.2,30.12,SE,132,3.0,4.0,96,0.00,,,0.00,0,Wunderground v.1.15,2013-02-06 04:13:00,
2013-02-05 20:19:00,48.3,47.2,30.12,East,99,1.0,1.0,96,0.00,,,0.00,0,Wunderground v.1.15,2013-02-06 04:19:00,
2013-02-05 20:25:00,48.2,47.1,30.12,ESE,112,0.0,3.0,96,0.00,,,0.00,0,Wunderground v.1.15,2013-02-06 04:25:00,
2013-02-05 20:30:00,48.1,47.0,30.12,ESE,116,2.0,2.0,96,0.00,,,0.00,0,Wunderground v.1.15,2013-02-06 04:30:00,
2013-02-05 20:36:00,48.1,47.0,30.12,ESE,120,2.0,2.0,96,0.00,,,0.00,0,Wunderground v.1.15,2013-02-06 04:36:00,
2013-02-05 20:41:00,48.0,46.9,30.12,ESE,114,4.0,4.0,96,0.00,,,0.00,0,Wunderground v.1.15,2013-02-06 04:41:00,
2013-02-05 20:46:00,47.9,47.1,30.12,ESE,119,1.0,4.0,97,0.00,,,0.00,0,Wunderground v.1.15,2013-02-06 04:46:00,
2013-02-05 20:52:00,47.9,46.8,30.13,ESE,111,2.0,2.0,96,0.00,,,0.00,0,Wunderground v.1.15,2013-02-06 04:52:00,
2013-02-05 20:58:00,47.8,47.0,30.13,ESE,123,0.0,2.0,97,0.00,,,0.00,0,Wunderground v.1.15,2013-02-06 04:58:00,
2013-02-05 21:00:00,47.7,46.6,30.13,ESE,109,1.0,1.0,96,0.00,,,0.00,0,Wunderground v.1.15,2013-02-06 05:00:00,
2013-02-05 21:01:00,47.7,46.9,30.13,ESE,111,0.0,7.0,97,0.00,,,0.00,0,Wunderground v.1.15,2013-02-06 05:01:00,
2013-02-05 21:02:00,47.7,46.9,30.13,SE,130,1.0,7.0,97,0.00,,,0.00,0,Wunderground v.1.15,2013-02-06 05:02:00,
2013-02-05 21:07:00,47.6,46.8,30.14,ESE,115,2.0,7.0,97,0.00,,,0.00,0,Wunderground v.1.15,2013-02-06 05:07:00,
2013-02-05 21:13:00,47.5,46.7,30.13,ESE,113,1.0,1.0,97,0.00,,,0.00,0,Wunderground v.1.15,2013-02-06 05:13:00,
2013-02-05 21:18:00,47.4,46.6,30.13,ESE,120,0.0,2.0,97,0.00,,,0.00,0,Wunderground v.1.15,2013-02-06 05:18:00,
2013-02-05 21:24:00,47.2,46.4,30.14,SE,131,0.0,1.0,97,0.00,,,0.00,0,Wunderground v.1.15,2013-02-06 05:24:00,
2013-02-05 21:29:00,47.2,46.4,30.14,ESE,123,1.0,1.0,97,0.00,,,0.00,0,Wunderground v.1.15,2013-02-06 05:29:00,
2013-02-05 21:35:00,47.1,46.3,30.14,ESE,115,0.0,2.0,97,0.00,,,0.00,0,Wunderground v.1.15,2013-02-06 05:35:00,
2013-02-05 21:41:00,47.0,46.5,30.14,ESE,115,0.0,0.0,98,0.00,,,0.00,0,Wunderground v.1.15,2013-02-06 05:41:00,
2013-02-05 21:47:00,46.9,46.4,30.14,ESE,115,0.0,0.0,98,0.00,,,0.00,0,Wunderground v.1.15,2013-02-06 05:47:00,
2013-02-05 21:53:00,46.7,46.2,30.15,ESE,115,0.0,0.0,98,0.00,,,0.00,0,Wunderground v.1.15,2013-02-06 05:53:00,
2013-02-05 21:58:00,46.6,46.1,30.15,ESE,115,0.0,0.0,98,0.00,,,0.00,0,Wunderground v.1.15,2013-02-06 05:58:00,
2013-02-05 22:07:00,46.5,46.0,30.15,ESE,115,0.0,5.0,98,0.00,,,0.00,0,Wunderground v.1.15,2013-02-06 06:07:00,
2013-02-05 22:12:00,46.4,45.9,30.15,ESE,113,1.0,1.0,98,0.00,,,0.00,0,Wunderground v.1.15,2013-02-06 06:12:00,
2013-02-05 22:18:00,46.2,45.9,30.15,ESE,113,0.0,2.0,99,0.00,,,0.00,0,Wunderground v.1.15,2013-02-06 06:18:00,
2013-02-05 22:24:00,46.1,45.6,30.15,ESE,113,0.0,0.0,98,0.00,,,0.00,0,Wunderground v.1.15,2013-02-06 06:24:00,
2013-02-05 22:30:00,45.9,45.4,30.15,ESE,114,0.0,2.0,98,0.00,,,0.00,0,Wunderground v.1.15,2013-02-06 06:30:00,
2013-02-05 22:36:00,45.6,45.3,30.15,ESE,112,0.0,2.0,99,0.00,,,0.00,0,Wunderground v.1.15,2013-02-06 06:36:00,
2013-02-05 22:42:00,45.5,45.2,30.15,ESE,112,0.0,0.0,99,0.00,,,0.00,0,Wunderground v.1.15,2013-02-06 06:42:00,
2013-02-05 22:48:00,45.4,45.1,30.15,ESE,112,0.0,0.0,99,0.00,,,0.00,0,Wunderground v.1.15,2013-02-06 06:48:00,
2013-02-05 22:53:00,45.4,45.1,30.15,ESE,112,0.0,0.0,99,0.00,,,0.00,0,Wunderground v.1.15,2013-02-06 06:53:00,
2013-02-05 22:59:00,45.4,45.4,30.16,ESE,112,0.0,0.0,100,0.00,,,0.00,0,Wunderground v.1.15,2013-02-06 06:59:00,
2013-02-05 23:06:00,45.3,45.3,30.16,ESE,112,0.0,3.0,100,0.00,,,0.00,0,Wunderground v.1.15,2013-02-06 07:06:00,
2013-02-05 23:12:00,45.3,45.3,30.16,ESE,112,0.0,0.0,100,0.00,,,0.00,0,Wunderground v.1.15,2013-02-06 07:12:00,
2013-02-05 23:18:00,45.1,45.1,30.16,ESE,112,0.0,0.0,100,0.00,,,0.00,0,Wunderground v.1.15,2013-02-06 07:18:00,
2013-02-05 23:23:00,45.1,45.1,30.17,ESE,112,0.0,0.0,100,0.00,,,0.00,0,Wunderground v.1.15,2013-02-06 07:23:00,
2013-02-05 23:29:00,45.0,45.0,30.17,ESE,112,0.0,0.0,100,0.00,,,0.00,0,Wunderground v.1.15,2013-02-06 07:29:00,
2013-02-05 23:35:00,44.9,44.9,30.18,ESE,112,0.0,0.0,100,0.00,,,0.00,0,Wunderground v.1.15,2013-02-06 07:35:00,
2013-02-05 23:41:00,44.8,44.8,30.18,ESE,112,0.0,0.0,100,0.00,,,0.00,0,Wunderground v.1.15,2013-02-06 07:41:00,
2013-02-05 23:47:00,44.8,44.8,30.19,ESE,112,0.0,0.0,100,0.00,,,0.00,0,Wunderground v.1.15,2013-02-06 07:47:00,
2013-02-05 23:53:00,44.6,44.6,30.19,ESE,112,0.0,0.0,100,0.00,,,0.00,0,Wunderground v.1.15,2013-02-06 07:53:00,
2013-02-05 23:59:00,44.5,44.5,30.19,ESE,112,0.0,0.0,100,0.00,,,0.00,0,Wunderground v.1.15,2013-02-06 07:59:00,